Aviation Digital Data Service (ADDS)

Output produced by TAFs form (2131 UTC 17 July 2018)
found at http://www.aviationweather.gov/adds/tafs/
 
EGPF 172120Z AUTO 24007KT 9999 BKN048 15/10 Q1015
TAF EGPF 171702Z 1718/1818 26007KT 9999 SCT035 
     PROB30 
     TEMPO 1800/1806 7000 
     PROB40 
     TEMPO 1812/1818 7000 SHRA